sensor_id;sensor_type;location;lat;lon;timestamp;P1;durP1;ratioP1;P2;durP2;ratioP2
11568;SDS011;5840;46.894;15.542;2023-11-21T00:01:20;11.40;;;10.33;;
11568;SDS011;5840;46.894;15.542;2023-11-21T00:03:48;11.57;;;10.47;;
11568;SDS011;5840;46.894;15.542;2023-11-21T00:06:15;11.37;;;10.37;;
11568;SDS011;5840;46.894;15.542;2023-11-21T00:08:43;10.87;;;9.87;;
11568;SDS011;5840;46.894;15.542;2023-11-21T00:11:10;11.27;;;10.17;;
11568;SDS011;5840;46.894;15.542;2023-11-21T00:13:37;9.77;;;8.97;;
11568;SDS011;5840;46.894;15.542;2023-11-21T00:16:04;10.67;;;9.23;;
11568;SDS011;5840;46.894;15.542;2023-11-21T00:18:32;10.30;;;9.37;;
11568;SDS011;5840;46.894;15.542;2023-11-21T00:21:00;8.87;;;8.07;;
11568;SDS011;5840;46.894;15.542;2023-11-21T00:23:28;10.13;;;9.23;;
11568;SDS011;5840;46.894;15.542;2023-11-21T00:25:55;10.00;;;9.00;;
11568;SDS011;5840;46.894;15.542;2023-11-21T00:28:23;10.33;;;8.83;;
11568;SDS011;5840;46.894;15.542;2023-11-21T00:30:50;9.20;;;8.33;;
11568;SDS011;5840;46.894;15.542;2023-11-21T00:33:17;10.47;;;8.67;;
11568;SDS011;5840;46.894;15.542;2023-11-21T00:35:44;9.97;;;9.10;;
11568;SDS011;5840;46.894;15.542;2023-11-21T00:38:12;10.00;;;9.00;;
11568;SDS011;5840;46.894;15.542;2023-11-21T00:40:39;8.93;;;8.23;;
11568;SDS011;5840;46.894;15.542;2023-11-21T00:43:07;9.40;;;8.60;;
11568;SDS011;5840;46.894;15.542;2023-11-21T00:45:34;10.77;;;9.77;;
11568;SDS011;5840;46.894;15.542;2023-11-21T00:48:01;9.87;;;8.90;;
11568;SDS011;5840;46.894;15.542;2023-11-21T00:50:30;12.60;;;11.57;;
11568;SDS011;5840;46.894;15.542;2023-11-21T00:52:57;9.70;;;8.37;;
11568;SDS011;5840;46.894;15.542;2023-11-21T00:55:25;8.60;;;7.80;;
11568;SDS011;5840;46.894;15.542;2023-11-21T00:57:53;9.37;;;8.47;;
11568;SDS011;5840;46.894;15.542;2023-11-21T01:00:20;9.33;;;8.43;;
11568;SDS011;5840;46.894;15.542;2023-11-21T01:02:47;9.47;;;8.67;;
11568;SDS011;5840;46.894;15.542;2023-11-21T01:05:14;9.57;;;8.73;;
11568;SDS011;5840;46.894;15.542;2023-11-21T01:07:41;10.03;;;9.03;;
11568;SDS011;5840;46.894;15.542;2023-11-21T01:10:08;8.47;;;7.70;;
11568;SDS011;5840;46.894;15.542;2023-11-21T01:12:37;9.47;;;7.93;;
11568;SDS011;5840;46.894;15.542;2023-11-21T01:15:05;9.13;;;8.30;;
11568;SDS011;5840;46.894;15.542;2023-11-21T01:17:33;8.97;;;8.20;;
11568;SDS011;5840;46.894;15.542;2023-11-21T01:20:00;8.57;;;7.87;;
11568;SDS011;5840;46.894;15.542;2023-11-21T01:22:27;9.10;;;8.20;;
11568;SDS011;5840;46.894;15.542;2023-11-21T01:24:54;9.50;;;8.60;;
11568;SDS011;5840;46.894;15.542;2023-11-21T01:27:21;9.20;;;8.40;;
11568;SDS011;5840;46.894;15.542;2023-11-21T01:29:49;9.70;;;8.90;;
11568;SDS011;5840;46.894;15.542;2023-11-21T01:32:18;9.60;;;8.70;;
11568;SDS011;5840;46.894;15.542;2023-11-21T01:34:45;9.07;;;8.27;;
11568;SDS011;5840;46.894;15.542;2023-11-21T01:37:14;9.73;;;8.83;;
11568;SDS011;5840;46.894;15.542;2023-11-21T01:39:42;9.17;;;8.33;;
11568;SDS011;5840;46.894;15.542;2023-11-21T01:42:10;8.63;;;7.83;;
11568;SDS011;5840;46.894;15.542;2023-11-21T01:44:37;9.33;;;8.43;;
11568;SDS011;5840;46.894;15.542;2023-11-21T01:47:06;9.43;;;8.53;;
11568;SDS011;5840;46.894;15.542;2023-11-21T01:49:35;9.80;;;8.90;;
11568;SDS011;5840;46.894;15.542;2023-11-21T01:52:03;9.83;;;8.87;;
11568;SDS011;5840;46.894;15.542;2023-11-21T01:54:30;9.73;;;8.77;;
11568;SDS011;5840;46.894;15.542;2023-11-21T01:56:58;9.73;;;8.93;;
11568;SDS011;5840;46.894;15.542;2023-11-21T01:59:29;10.10;;;9.20;;
11568;SDS011;5840;46.894;15.542;2023-11-21T02:02:01;9.83;;;8.83;;
11568;SDS011;5840;46.894;15.542;2023-11-21T02:04:32;9.80;;;8.90;;
11568;SDS011;5840;46.894;15.542;2023-11-21T02:06:59;9.63;;;8.70;;
11568;SDS011;5840;46.894;15.542;2023-11-21T02:09:26;9.77;;;8.87;;
11568;SDS011;5840;46.894;15.542;2023-11-21T02:11:55;9.37;;;8.57;;
11568;SDS011;5840;46.894;15.542;2023-11-21T02:14:23;9.70;;;8.80;;
11568;SDS011;5840;46.894;15.542;2023-11-21T02:16:52;10.20;;;8.77;;
11568;SDS011;5840;46.894;15.542;2023-11-21T02:19:20;10.67;;;9.67;;
11568;SDS011;5840;46.894;15.542;2023-11-21T02:21:52;11.07;;;9.60;;
11568;SDS011;5840;46.894;15.542;2023-11-21T02:24:21;9.90;;;8.90;;
11568;SDS011;5840;46.894;15.542;2023-11-21T02:26:48;11.43;;;10.43;;
11568;SDS011;5840;46.894;15.542;2023-11-21T02:29:16;10.73;;;9.73;;
11568;SDS011;5840;46.894;15.542;2023-11-21T02:31:47;11.67;;;10.53;;
11568;SDS011;5840;46.894;15.542;2023-11-21T02:34:14;12.90;;;11.30;;
11568;SDS011;5840;46.894;15.542;2023-11-21T02:36:41;11.80;;;10.70;;
11568;SDS011;5840;46.894;15.542;2023-11-21T02:39:08;10.93;;;10.07;;
11568;SDS011;5840;46.894;15.542;2023-11-21T02:41:37;11.83;;;10.73;;
11568;SDS011;5840;46.894;15.542;2023-11-21T02:44:05;12.10;;;10.90;;
11568;SDS011;5840;46.894;15.542;2023-11-21T02:46:32;12.23;;;11.13;;
11568;SDS011;5840;46.894;15.542;2023-11-21T02:49:00;13.03;;;11.77;;
11568;SDS011;5840;46.894;15.542;2023-11-21T02:51:27;13.10;;;12.00;;
11568;SDS011;5840;46.894;15.542;2023-11-21T02:53:54;13.40;;;11.83;;
11568;SDS011;5840;46.894;15.542;2023-11-21T02:56:23;12.63;;;11.43;;
11568;SDS011;5840;46.894;15.542;2023-11-21T02:58:54;11.67;;;10.63;;
11568;SDS011;5840;46.894;15.542;2023-11-21T03:01:22;12.57;;;11.27;;
11568;SDS011;5840;46.894;15.542;2023-11-21T03:03:50;12.23;;;11.03;;
11568;SDS011;5840;46.894;15.542;2023-11-21T03:06:17;12.83;;;11.73;;
11568;SDS011;5840;46.894;15.542;2023-11-21T03:08:44;12.87;;;11.80;;
11568;SDS011;5840;46.894;15.542;2023-11-21T03:11:11;13.40;;;12.23;;
11568;SDS011;5840;46.894;15.542;2023-11-21T03:13:39;14.07;;;12.73;;
11568;SDS011;5840;46.894;15.542;2023-11-21T03:16:08;13.47;;;12.27;;
11568;SDS011;5840;46.894;15.542;2023-11-21T03:18:35;13.37;;;12.07;;
11568;SDS011;5840;46.894;15.542;2023-11-21T03:21:02;13.53;;;12.23;;
11568;SDS011;5840;46.894;15.542;2023-11-21T03:23:29;14.07;;;12.67;;
11568;SDS011;5840;46.894;15.542;2023-11-21T03:25:57;14.23;;;12.23;;
11568;SDS011;5840;46.894;15.542;2023-11-21T03:28:25;14.47;;;13.07;;
11568;SDS011;5840;46.894;15.542;2023-11-21T03:30:53;14.23;;;12.80;;
11568;SDS011;5840;46.894;15.542;2023-11-21T03:33:21;15.97;;;14.47;;
11568;SDS011;5840;46.894;15.542;2023-11-21T03:35:48;18.10;;;16.43;;
11568;SDS011;5840;46.894;15.542;2023-11-21T03:38:15;15.50;;;14.03;;
11568;SDS011;5840;46.894;15.542;2023-11-21T03:40:42;14.50;;;13.20;;
11568;SDS011;5840;46.894;15.542;2023-11-21T03:43:09;14.60;;;13.13;;
11568;SDS011;5840;46.894;15.542;2023-11-21T03:45:36;14.77;;;13.37;;
11568;SDS011;5840;46.894;15.542;2023-11-21T03:48:05;14.17;;;12.93;;
11568;SDS011;5840;46.894;15.542;2023-11-21T03:50:34;14.03;;;12.73;;
11568;SDS011;5840;46.894;15.542;2023-11-21T03:53:01;13.13;;;12.03;;
11568;SDS011;5840;46.894;15.542;2023-11-21T03:55:28;14.40;;;12.10;;
11568;SDS011;5840;46.894;15.542;2023-11-21T03:57:56;12.40;;;11.27;;
11568;SDS011;5840;46.894;15.542;2023-11-21T04:00:23;12.83;;;11.63;;
11568;SDS011;5840;46.894;15.542;2023-11-21T04:02:51;14.13;;;12.60;;
11568;SDS011;5840;46.894;15.542;2023-11-21T04:05:19;13.20;;;12.00;;
11568;SDS011;5840;46.894;15.542;2023-11-21T04:07:47;13.13;;;11.90;;
11568;SDS011;5840;46.894;15.542;2023-11-21T04:10:14;13.53;;;12.33;;
11568;SDS011;5840;46.894;15.542;2023-11-21T04:12:41;13.20;;;12.00;;
11568;SDS011;5840;46.894;15.542;2023-11-21T04:15:08;13.07;;;11.93;;
11568;SDS011;5840;46.894;15.542;2023-11-21T04:17:36;13.07;;;11.90;;
11568;SDS011;5840;46.894;15.542;2023-11-21T04:20:03;13.23;;;11.37;;
11568;SDS011;5840;46.894;15.542;2023-11-21T04:22:33;12.73;;;11.50;;
11568;SDS011;5840;46.894;15.542;2023-11-21T04:25:03;12.30;;;11.20;;
11568;SDS011;5840;46.894;15.542;2023-11-21T04:27:31;12.30;;;11.30;;
11568;SDS011;5840;46.894;15.542;2023-11-21T04:29:59;13.33;;;12.00;;
11568;SDS011;5840;46.894;15.542;2023-11-21T04:32:26;12.20;;;11.10;;
11568;SDS011;5840;46.894;15.542;2023-11-21T04:34:53;12.43;;;11.27;;
11568;SDS011;5840;46.894;15.542;2023-11-21T04:37:20;12.13;;;11.03;;
11568;SDS011;5840;46.894;15.542;2023-11-21T04:39:47;12.97;;;11.77;;
11568;SDS011;5840;46.894;15.542;2023-11-21T04:42:16;12.80;;;11.63;;
11568;SDS011;5840;46.894;15.542;2023-11-21T04:44:43;13.57;;;12.27;;
11568;SDS011;5840;46.894;15.542;2023-11-21T04:47:10;12.93;;;11.77;;
11568;SDS011;5840;46.894;15.542;2023-11-21T04:49:37;12.43;;;11.43;;
11568;SDS011;5840;46.894;15.542;2023-11-21T04:52:06;11.77;;;10.67;;
11568;SDS011;5840;46.894;15.542;2023-11-21T04:54:34;12.63;;;11.43;;
11568;SDS011;5840;46.894;15.542;2023-11-21T04:57:02;11.83;;;10.83;;
11568;SDS011;5840;46.894;15.542;2023-11-21T04:59:31;13.33;;;12.07;;
11568;SDS011;5840;46.894;15.542;2023-11-21T05:01:58;12.33;;;11.33;;
11568;SDS011;5840;46.894;15.542;2023-11-21T05:04:26;12.63;;;11.40;;
11568;SDS011;5840;46.894;15.542;2023-11-21T05:06:53;12.80;;;11.60;;
11568;SDS011;5840;46.894;15.542;2023-11-21T05:09:20;13.13;;;12.03;;
11568;SDS011;5840;46.894;15.542;2023-11-21T05:11:47;13.53;;;12.17;;
11568;SDS011;5840;46.894;15.542;2023-11-21T05:14:14;11.53;;;10.50;;
11568;SDS011;5840;46.894;15.542;2023-11-21T05:16:42;10.37;;;9.47;;
11568;SDS011;5840;46.894;15.542;2023-11-21T05:19:09;11.83;;;10.67;;
11568;SDS011;5840;46.894;15.542;2023-11-21T05:21:38;11.80;;;10.70;;
11568;SDS011;5840;46.894;15.542;2023-11-21T05:24:05;12.50;;;11.50;;
11568;SDS011;5840;46.894;15.542;2023-11-21T05:26:32;12.60;;;11.33;;
11568;SDS011;5840;46.894;15.542;2023-11-21T05:28:59;11.70;;;10.70;;
11568;SDS011;5840;46.894;15.542;2023-11-21T05:31:26;12.40;;;11.23;;
11568;SDS011;5840;46.894;15.542;2023-11-21T05:33:55;13.13;;;11.90;;
11568;SDS011;5840;46.894;15.542;2023-11-21T05:36:22;13.70;;;12.60;;
11568;SDS011;5840;46.894;15.542;2023-11-21T05:38:49;13.53;;;12.20;;
11568;SDS011;5840;46.894;15.542;2023-11-21T05:41:16;13.57;;;12.43;;
11568;SDS011;5840;46.894;15.542;2023-11-21T05:43:43;15.63;;;14.33;;
11568;SDS011;5840;46.894;15.542;2023-11-21T05:46:10;16.30;;;14.90;;
11568;SDS011;5840;46.894;15.542;2023-11-21T05:48:38;14.90;;;13.57;;
11568;SDS011;5840;46.894;15.542;2023-11-21T05:51:07;13.33;;;12.23;;
11568;SDS011;5840;46.894;15.542;2023-11-21T05:53:34;12.47;;;11.37;;
11568;SDS011;5840;46.894;15.542;2023-11-21T05:56:01;12.60;;;11.60;;
11568;SDS011;5840;46.894;15.542;2023-11-21T05:58:29;11.63;;;10.53;;
11568;SDS011;5840;46.894;15.542;2023-11-21T06:00:56;11.13;;;10.03;;
11568;SDS011;5840;46.894;15.542;2023-11-21T06:03:23;10.60;;;9.70;;
11568;SDS011;5840;46.894;15.542;2023-11-21T06:05:50;10.30;;;9.07;;
11568;SDS011;5840;46.894;15.542;2023-11-21T06:08:18;10.10;;;9.23;;
11568;SDS011;5840;46.894;15.542;2023-11-21T06:10:45;9.70;;;8.77;;
11568;SDS011;5840;46.894;15.542;2023-11-21T06:13:14;9.90;;;8.90;;
11568;SDS011;5840;46.894;15.542;2023-11-21T06:15:41;9.80;;;9.00;;
11568;SDS011;5840;46.894;15.542;2023-11-21T06:18:08;9.33;;;8.63;;
11568;SDS011;5840;46.894;15.542;2023-11-21T06:20:36;9.77;;;8.47;;
11568;SDS011;5840;46.894;15.542;2023-11-21T06:23:03;9.07;;;8.37;;
11568;SDS011;5840;46.894;15.542;2023-11-21T06:25:32;8.87;;;7.97;;
11568;SDS011;5840;46.894;15.542;2023-11-21T06:28:01;9.40;;;8.60;;
11568;SDS011;5840;46.894;15.542;2023-11-21T06:30:28;10.63;;;9.73;;
11568;SDS011;5840;46.894;15.542;2023-11-21T06:32:55;10.20;;;9.40;;
11568;SDS011;5840;46.894;15.542;2023-11-21T06:35:22;10.20;;;9.40;;
11568;SDS011;5840;46.894;15.542;2023-11-21T06:37:49;11.47;;;10.57;;
11568;SDS011;5840;46.894;15.542;2023-11-21T06:40:17;12.07;;;11.00;;
11568;SDS011;5840;46.894;15.542;2023-11-21T06:42:46;11.50;;;10.60;;
11568;SDS011;5840;46.894;15.542;2023-11-21T06:45:13;11.67;;;10.67;;
11568;SDS011;5840;46.894;15.542;2023-11-21T06:47:40;12.83;;;11.70;;
11568;SDS011;5840;46.894;15.542;2023-11-21T06:50:07;14.43;;;13.13;;
11568;SDS011;5840;46.894;15.542;2023-11-21T06:52:34;14.97;;;13.63;;
11568;SDS011;5840;46.894;15.542;2023-11-21T06:55:01;15.23;;;13.73;;
11568;SDS011;5840;46.894;15.542;2023-11-21T06:57:29;13.03;;;12.00;;
11568;SDS011;5840;46.894;15.542;2023-11-21T06:59:58;12.80;;;11.50;;
11568;SDS011;5840;46.894;15.542;2023-11-21T07:02:26;13.33;;;12.20;;
11568;SDS011;5840;46.894;15.542;2023-11-21T07:04:53;12.97;;;11.77;;
11568;SDS011;5840;46.894;15.542;2023-11-21T07:07:20;12.70;;;11.60;;
11568;SDS011;5840;46.894;15.542;2023-11-21T07:09:47;12.43;;;11.33;;
11568;SDS011;5840;46.894;15.542;2023-11-21T07:12:14;11.50;;;10.50;;
11568;SDS011;5840;46.894;15.542;2023-11-21T07:14:41;13.57;;;12.37;;
11568;SDS011;5840;46.894;15.542;2023-11-21T07:17:11;13.30;;;12.00;;
11568;SDS011;5840;46.894;15.542;2023-11-21T07:19:38;14.37;;;13.17;;
11568;SDS011;5840;46.894;15.542;2023-11-21T07:22:06;14.37;;;13.10;;
11568;SDS011;5840;46.894;15.542;2023-11-21T07:24:34;16.57;;;14.80;;
11568;SDS011;5840;46.894;15.542;2023-11-21T07:27:01;15.57;;;14.17;;
11568;SDS011;5840;46.894;15.542;2023-11-21T07:29:29;12.23;;;11.13;;
11568;SDS011;5840;46.894;15.542;2023-11-21T07:31:56;12.97;;;11.67;;
11568;SDS011;5840;46.894;15.542;2023-11-21T07:34:24;12.77;;;11.67;;
11568;SDS011;5840;46.894;15.542;2023-11-21T07:36:51;12.50;;;11.40;;
11568;SDS011;5840;46.894;15.542;2023-11-21T07:39:18;13.07;;;11.97;;
11568;SDS011;5840;46.894;15.542;2023-11-21T07:41:46;13.03;;;12.03;;
11568;SDS011;5840;46.894;15.542;2023-11-21T07:44:15;14.27;;;12.77;;
11568;SDS011;5840;46.894;15.542;2023-11-21T07:46:43;13.67;;;12.43;;
11568;SDS011;5840;46.894;15.542;2023-11-21T07:49:10;16.93;;;15.23;;
11568;SDS011;5840;46.894;15.542;2023-11-21T07:51:41;15.27;;;13.87;;
11568;SDS011;5840;46.894;15.542;2023-11-21T07:54:08;13.93;;;12.73;;
11568;SDS011;5840;46.894;15.542;2023-11-21T07:56:36;13.27;;;11.97;;
11568;SDS011;5840;46.894;15.542;2023-11-21T07:59:03;14.77;;;13.37;;
11568;SDS011;5840;46.894;15.542;2023-11-21T08:01:30;13.63;;;12.43;;
11568;SDS011;5840;46.894;15.542;2023-11-21T08:03:58;14.10;;;12.70;;
11568;SDS011;5840;46.894;15.542;2023-11-21T08:06:28;14.57;;;13.27;;
11568;SDS011;5840;46.894;15.542;2023-11-21T08:08:57;14.40;;;13.00;;
11568;SDS011;5840;46.894;15.542;2023-11-21T08:11:24;13.70;;;12.50;;
11568;SDS011;5840;46.894;15.542;2023-11-21T08:13:51;13.73;;;12.53;;
11568;SDS011;5840;46.894;15.542;2023-11-21T08:16:18;13.40;;;12.20;;
11568;SDS011;5840;46.894;15.542;2023-11-21T08:18:45;13.83;;;12.43;;
11568;SDS011;5840;46.894;15.542;2023-11-21T08:21:12;13.47;;;12.17;;
11568;SDS011;5840;46.894;15.542;2023-11-21T08:23:39;13.43;;;12.23;;
11568;SDS011;5840;46.894;15.542;2023-11-21T08:26:08;13.30;;;12.00;;
11568;SDS011;5840;46.894;15.542;2023-11-21T08:28:35;14.60;;;13.43;;
11568;SDS011;5840;46.894;15.542;2023-11-21T08:31:01;15.07;;;13.87;;
11568;SDS011;5840;46.894;15.542;2023-11-21T08:33:29;14.90;;;13.50;;
11568;SDS011;5840;46.894;15.542;2023-11-21T08:35:56;14.43;;;13.13;;
11568;SDS011;5840;46.894;15.542;2023-11-21T08:38:23;14.43;;;13.03;;
11568;SDS011;5840;46.894;15.542;2023-11-21T08:40:50;14.63;;;13.40;;
11568;SDS011;5840;46.894;15.542;2023-11-21T08:43:18;15.03;;;13.70;;
11568;SDS011;5840;46.894;15.542;2023-11-21T08:45:45;15.97;;;14.57;;
11568;SDS011;5840;46.894;15.542;2023-11-21T08:48:12;16.10;;;14.70;;
11568;SDS011;5840;46.894;15.542;2023-11-21T08:50:39;15.33;;;13.93;;
11568;SDS011;5840;46.894;15.542;2023-11-21T08:53:06;14.07;;;12.87;;
11568;SDS011;5840;46.894;15.542;2023-11-21T08:55:33;15.30;;;14.00;;
11568;SDS011;5840;46.894;15.542;2023-11-21T08:58:02;14.67;;;13.47;;
11568;SDS011;5840;46.894;15.542;2023-11-21T09:00:32;14.93;;;13.73;;
11568;SDS011;5840;46.894;15.542;2023-11-21T09:03:00;15.43;;;14.00;;
11568;SDS011;5840;46.894;15.542;2023-11-21T09:05:28;13.77;;;12.43;;
11568;SDS011;5840;46.894;15.542;2023-11-21T09:07:55;13.63;;;12.53;;
11568;SDS011;5840;46.894;15.542;2023-11-21T09:10:22;14.57;;;13.27;;
11568;SDS011;5840;46.894;15.542;2023-11-21T09:12:50;13.33;;;12.03;;
11568;SDS011;5840;46.894;15.542;2023-11-21T09:15:18;13.83;;;12.53;;
11568;SDS011;5840;46.894;15.542;2023-11-21T09:17:46;14.17;;;12.87;;
11568;SDS011;5840;46.894;15.542;2023-11-21T09:20:14;14.33;;;13.20;;
11568;SDS011;5840;46.894;15.542;2023-11-21T09:22:41;14.67;;;13.47;;
11568;SDS011;5840;46.894;15.542;2023-11-21T09:25:09;14.80;;;13.30;;
11568;SDS011;5840;46.894;15.542;2023-11-21T09:27:37;14.20;;;13.10;;
11568;SDS011;5840;46.894;15.542;2023-11-21T09:30:05;15.33;;;14.07;;
11568;SDS011;5840;46.894;15.542;2023-11-21T09:32:35;15.10;;;13.70;;
11568;SDS011;5840;46.894;15.542;2023-11-21T09:35:04;16.00;;;14.50;;
11568;SDS011;5840;46.894;15.542;2023-11-21T09:37:33;16.77;;;15.27;;
11568;SDS011;5840;46.894;15.542;2023-11-21T09:40:01;15.93;;;14.63;;
11568;SDS011;5840;46.894;15.542;2023-11-21T09:42:30;15.70;;;14.27;;
11568;SDS011;5840;46.894;15.542;2023-11-21T09:45:03;14.73;;;13.43;;
11568;SDS011;5840;46.894;15.542;2023-11-21T09:47:33;16.10;;;14.60;;
11568;SDS011;5840;46.894;15.542;2023-11-21T09:50:07;14.00;;;12.70;;
11568;SDS011;5840;46.894;15.542;2023-11-21T09:52:49;14.07;;;12.77;;
11568;SDS011;5840;46.894;15.542;2023-11-21T09:55:22;16.00;;;14.60;;
11568;SDS011;5840;46.894;15.542;2023-11-21T09:57:53;16.50;;;15.00;;
11568;SDS011;5840;46.894;15.542;2023-11-21T10:00:22;16.47;;;15.07;;
11568;SDS011;5840;46.894;15.542;2023-11-21T10:02:49;15.60;;;14.10;;
11568;SDS011;5840;46.894;15.542;2023-11-21T10:05:19;16.57;;;15.23;;
11568;SDS011;5840;46.894;15.542;2023-11-21T10:07:48;15.83;;;14.50;;
11568;SDS011;5840;46.894;15.542;2023-11-21T10:10:18;14.10;;;13.00;;
11568;SDS011;5840;46.894;15.542;2023-11-21T10:12:48;15.73;;;14.43;;
11568;SDS011;5840;46.894;15.542;2023-11-21T10:15:18;14.13;;;12.83;;
11568;SDS011;5840;46.894;15.542;2023-11-21T10:17:48;14.07;;;12.97;;
11568;SDS011;5840;46.894;15.542;2023-11-21T10:20:19;13.67;;;12.57;;
11568;SDS011;5840;46.894;15.542;2023-11-21T10:22:46;12.33;;;11.40;;
11568;SDS011;5840;46.894;15.542;2023-11-21T10:25:13;12.17;;;11.17;;
11568;SDS011;5840;46.894;15.542;2023-11-21T10:27:41;12.17;;;11.13;;
11568;SDS011;5840;46.894;15.542;2023-11-21T10:30:09;13.43;;;12.33;;
11568;SDS011;5840;46.894;15.542;2023-11-21T10:32:37;16.13;;;14.73;;
11568;SDS011;5840;46.894;15.542;2023-11-21T10:35:05;18.80;;;15.93;;
11568;SDS011;5840;46.894;15.542;2023-11-21T10:37:36;15.67;;;14.27;;
11568;SDS011;5840;46.894;15.542;2023-11-21T10:40:05;18.83;;;17.23;;
11568;SDS011;5840;46.894;15.542;2023-11-21T10:42:34;19.03;;;17.30;;
11568;SDS011;5840;46.894;15.542;2023-11-21T10:45:01;18.83;;;17.00;;
11568;SDS011;5840;46.894;15.542;2023-11-21T10:47:30;18.03;;;16.33;;
11568;SDS011;5840;46.894;15.542;2023-11-21T10:50:00;16.57;;;15.10;;
11568;SDS011;5840;46.894;15.542;2023-11-21T10:52:27;15.80;;;14.27;;
11568;SDS011;5840;46.894;15.542;2023-11-21T10:54:56;14.67;;;13.17;;
11568;SDS011;5840;46.894;15.542;2023-11-21T10:57:24;13.37;;;12.17;;
11568;SDS011;5840;46.894;15.542;2023-11-21T10:59:52;13.67;;;12.57;;
11568;SDS011;5840;46.894;15.542;2023-11-21T11:02:23;14.07;;;12.77;;
11568;SDS011;5840;46.894;15.542;2023-11-21T11:04:50;16.00;;;14.70;;
11568;SDS011;5840;46.894;15.542;2023-11-21T11:07:20;14.40;;;13.20;;
11568;SDS011;5840;46.894;15.542;2023-11-21T11:09:50;14.33;;;13.13;;
11568;SDS011;5840;46.894;15.542;2023-11-21T11:12:19;15.57;;;13.97;;
11568;SDS011;5840;46.894;15.542;2023-11-21T11:14:46;25.33;;;22.60;;
11568;SDS011;5840;46.894;15.542;2023-11-21T11:17:14;16.70;;;15.17;;
11568;SDS011;5840;46.894;15.542;2023-11-21T11:19:42;18.07;;;16.20;;
11568;SDS011;5840;46.894;15.542;2023-11-21T11:22:12;14.93;;;13.53;;
11568;SDS011;5840;46.894;15.542;2023-11-21T11:25:03;14.07;;;12.97;;
11568;SDS011;5840;46.894;15.542;2023-11-21T11:27:47;14.70;;;13.50;;
11568;SDS011;5840;46.894;15.542;2023-11-21T11:30:23;14.47;;;13.07;;
11568;SDS011;5840;46.894;15.542;2023-11-21T11:33:04;12.70;;;11.63;;
11568;SDS011;5840;46.894;15.542;2023-11-21T11:35:40;14.40;;;12.97;;
11568;SDS011;5840;46.894;15.542;2023-11-21T11:38:20;13.90;;;12.77;;
11568;SDS011;5840;46.894;15.542;2023-11-21T11:40:48;13.33;;;12.10;;
11568;SDS011;5840;46.894;15.542;2023-11-21T11:43:25;13.07;;;11.87;;
11568;SDS011;5840;46.894;15.542;2023-11-21T11:45:55;13.60;;;12.17;;
11568;SDS011;5840;46.894;15.542;2023-11-21T11:48:24;13.53;;;12.33;;
11568;SDS011;5840;46.894;15.542;2023-11-21T11:51:00;13.63;;;12.53;;
11568;SDS011;5840;46.894;15.542;2023-11-21T11:53:33;13.53;;;12.23;;
11568;SDS011;5840;46.894;15.542;2023-11-21T11:59:02;12.67;;;11.57;;
11568;SDS011;5840;46.894;15.542;2023-11-21T12:01:34;12.43;;;11.43;;
11568;SDS011;5840;46.894;15.542;2023-11-21T12:06:59;12.90;;;11.80;;
11568;SDS011;5840;46.894;15.542;2023-11-21T12:09:28;13.40;;;12.17;;
11568;SDS011;5840;46.894;15.542;2023-11-21T12:11:56;12.97;;;11.80;;
11568;SDS011;5840;46.894;15.542;2023-11-21T12:14:24;13.30;;;11.90;;
11568;SDS011;5840;46.894;15.542;2023-11-21T12:16:52;11.83;;;10.83;;
11568;SDS011;5840;46.894;15.542;2023-11-21T12:19:19;12.50;;;11.40;;
11568;SDS011;5840;46.894;15.542;2023-11-21T12:21:48;12.70;;;11.60;;
11568;SDS011;5840;46.894;15.542;2023-11-21T12:24:15;12.47;;;11.47;;
11568;SDS011;5840;46.894;15.542;2023-11-21T12:26:43;12.50;;;11.40;;
11568;SDS011;5840;46.894;15.542;2023-11-21T12:29:10;12.80;;;11.80;;
11568;SDS011;5840;46.894;15.542;2023-11-21T12:31:39;14.03;;;12.73;;
11568;SDS011;5840;46.894;15.542;2023-11-21T12:34:06;13.50;;;12.30;;
11568;SDS011;5840;46.894;15.542;2023-11-21T12:36:36;13.60;;;12.50;;
11568;SDS011;5840;46.894;15.542;2023-11-21T12:39:04;13.30;;;12.00;;
11568;SDS011;5840;46.894;15.542;2023-11-21T12:41:31;12.70;;;11.50;;
11568;SDS011;5840;46.894;15.542;2023-11-21T12:43:58;13.57;;;12.30;;
11568;SDS011;5840;46.894;15.542;2023-11-21T12:46:25;13.20;;;12.07;;
11568;SDS011;5840;46.894;15.542;2023-11-21T12:48:56;13.20;;;12.07;;
11568;SDS011;5840;46.894;15.542;2023-11-21T12:51:23;13.77;;;12.60;;
11568;SDS011;5840;46.894;15.542;2023-11-21T12:53:51;14.00;;;12.80;;
11568;SDS011;5840;46.894;15.542;2023-11-21T12:56:19;12.57;;;11.47;;
11568;SDS011;5840;46.894;15.542;2023-11-21T12:58:49;12.53;;;11.47;;
11568;SDS011;5840;46.894;15.542;2023-11-21T13:01:19;10.97;;;10.07;;
11568;SDS011;5840;46.894;15.542;2023-11-21T13:03:48;11.97;;;10.97;;
11568;SDS011;5840;46.894;15.542;2023-11-21T13:06:18;11.63;;;10.67;;
11568;SDS011;5840;46.894;15.542;2023-11-21T13:08:49;13.43;;;12.40;;
11568;SDS011;5840;46.894;15.542;2023-11-21T13:11:17;13.90;;;12.60;;
11568;SDS011;5840;46.894;15.542;2023-11-21T13:13:44;13.47;;;12.17;;
11568;SDS011;5840;46.894;15.542;2023-11-21T13:16:11;14.83;;;13.47;;
11568;SDS011;5840;46.894;15.542;2023-11-21T13:18:38;13.07;;;11.97;;
11568;SDS011;5840;46.894;15.542;2023-11-21T13:21:07;13.23;;;12.03;;
11568;SDS011;5840;46.894;15.542;2023-11-21T13:23:40;12.73;;;11.63;;
11568;SDS011;5840;46.894;15.542;2023-11-21T13:26:08;12.90;;;11.80;;
11568;SDS011;5840;46.894;15.542;2023-11-21T13:28:37;11.77;;;10.73;;
11568;SDS011;5840;46.894;15.542;2023-11-21T13:31:06;12.30;;;11.20;;
11568;SDS011;5840;46.894;15.542;2023-11-21T13:33:46;12.40;;;11.33;;
11568;SDS011;5840;46.894;15.542;2023-11-21T13:36:16;12.47;;;11.37;;
11568;SDS011;5840;46.894;15.542;2023-11-21T13:38:49;11.97;;;11.03;;
11568;SDS011;5840;46.894;15.542;2023-11-21T13:41:17;13.23;;;12.00;;
11568;SDS011;5840;46.894;15.542;2023-11-21T13:43:44;12.80;;;11.67;;
11568;SDS011;5840;46.894;15.542;2023-11-21T13:46:19;12.70;;;11.60;;
11568;SDS011;5840;46.894;15.542;2023-11-21T13:48:48;12.10;;;11.20;;
11568;SDS011;5840;46.894;15.542;2023-11-21T13:51:21;13.43;;;12.10;;
11568;SDS011;5840;46.894;15.542;2023-11-21T13:53:58;12.30;;;11.30;;
11568;SDS011;5840;46.894;15.542;2023-11-21T13:56:25;12.13;;;11.10;;
11568;SDS011;5840;46.894;15.542;2023-11-21T13:58:54;11.80;;;10.87;;
11568;SDS011;5840;46.894;15.542;2023-11-21T14:01:24;12.37;;;11.10;;
11568;SDS011;5840;46.894;15.542;2023-11-21T14:04:18;11.77;;;10.77;;
11568;SDS011;5840;46.894;15.542;2023-11-21T14:07:00;13.40;;;12.07;;
11568;SDS011;5840;46.894;15.542;2023-11-21T14:09:45;12.13;;;11.17;;
11568;SDS011;5840;46.894;15.542;2023-11-21T14:12:14;12.53;;;11.53;;
11568;SDS011;5840;46.894;15.542;2023-11-21T14:14:41;12.83;;;11.77;;
11568;SDS011;5840;46.894;15.542;2023-11-21T14:17:09;13.50;;;12.40;;
11568;SDS011;5840;46.894;15.542;2023-11-21T14:19:36;17.37;;;15.97;;
11568;SDS011;5840;46.894;15.542;2023-11-21T14:22:06;24.40;;;22.37;;
11568;SDS011;5840;46.894;15.542;2023-11-21T14:24:34;21.53;;;19.83;;
11568;SDS011;5840;46.894;15.542;2023-11-21T14:27:03;17.40;;;16.00;;
11568;SDS011;5840;46.894;15.542;2023-11-21T14:29:30;18.17;;;16.77;;
11568;SDS011;5840;46.894;15.542;2023-11-21T14:32:02;14.37;;;13.00;;
11568;SDS011;5840;46.894;15.542;2023-11-21T14:34:30;14.13;;;12.90;;
11568;SDS011;5840;46.894;15.542;2023-11-21T14:36:57;13.40;;;12.30;;
11568;SDS011;5840;46.894;15.542;2023-11-21T14:39:24;13.23;;;12.13;;